Minneapolis, Minnesota
Traffic Map
Current Weather Conditions
Minneapolis, Minnesota
Overcast
Overcast
38°
Feels Like: 30°
Wind Chill: 30° Ceiling: 4000
Heat Index: 38° Visibility: 10mi
Dew Point: 31° Wind: 12mph
Humidity: 76% Direction: 160° (SSE)
Pressure: 29.66in Gusts: 18mph
Raw Report DataKMSP 060253Z 16010G16KT 10SM BKN040 OVC100 03/M01 A2966 RMK AO2 SLP051 60000 T00331006 53000
Traffic Incident Summary
Active as of:
Severity:
Category:
InformationThere was an issue retrieving the traffic information for this location. Please try a different location or try again shortly.
Advertisements
Track Severe Weather on mobile